Terminal Aerodrome Forecast
Issued by NWS Omaha/Valley, NE

Home | Current Version | Previous Version | Text Only | Print | Product List | Glossary On
Versions: 1 2 3 4 5 6 7 8 9 10 11 12 13 14
000
FTUS43 KOAX 250927 AAB
TAFLNK
TAF AMD
KLNK 250927Z 2509/2606 02010KT P6SM VCSH SCT035 OVC080
      TEMPO 2510/2514 4SM SHRA OVC035
     FM251400 01010KT P6SM VCSH BKN020 OVC050
     FM251600 01011KT 6SM HZ BKN015 OVC030
     FM252100 34011KT 4SM BR VCSH BKN008 OVC040
     FM260000 34013KT P6SM BKN008 OVC025=

USA.gov is the U.S. government's official web portal to all federal, state and local government web resources and services.